Time;durP1;ratioP1;P1;durP2;ratioP2;P2;SDS_P1;SDS_P2;PMS_P1;PMS_P2;Temp;Humidity;BMP_temperature;BMP_pressure;BME280_temperature;BME280_humidity;BME280_pressure;Samples;Min_cycle;Max_cycle;Signal;HPM_P1;HPM_P2
2022/06/14 00:01:59;;;;;;;11.80;4.55;;;9.70;1.00;;;;;;4966217;28;20045;-90
2022/06/14 00:04:24;;;;;;;12.52;4.93;;;9.70;1.00;;;;;;4970922;28;20585;-89
2022/06/14 00:06:50;;;;;;;13.75;5.45;;;9.60;1.00;;;;;;4980525;28;20461;-89
2022/06/14 00:09:16;;;;;;;7.97;3.95;;;9.60;1.00;;;;;;4968050;28;20221;-90
2022/06/14 00:11:42;;;;;;;14.27;4.43;;;9.60;1.00;;;;;;4967638;28;20380;-90
2022/06/14 00:14:10;;;;;;;11.05;4.50;;;9.50;1.00;;;;;;4954889;28;20236;-90
2022/06/14 00:16:37;;;;;;;12.55;5.10;;;9.50;1.00;;;;;;4972457;28;20101;-88
2022/06/14 00:19:04;;;;;;;10.48;5.30;;;9.50;1.00;;;;;;4994129;28;20242;-89
2022/06/14 00:21:31;;;;;;;9.32;4.55;;;9.50;1.00;;;;;;4965597;28;20050;-89
2022/06/14 00:23:57;;;;;;;14.70;4.07;;;9.40;1.00;;;;;;4966366;28;20042;-88
2022/06/14 00:26:22;;;;;;;11.25;4.82;;;9.40;1.00;;;;;;4996179;28;20047;-90
2022/06/14 00:28:48;;;;;;;14.05;5.05;;;9.40;1.00;;;;;;4953908;28;20149;-89
2022/06/14 00:31:21;;;;;;;13.18;4.82;;;9.50;1.00;;;;;;4970289;28;20043;-89
2022/06/14 00:33:47;;;;;;;13.20;4.85;;;9.50;1.00;;;;;;4964345;28;20038;-89
2022/06/14 00:36:29;;;;;;;12.52;4.80;;;9.50;1.00;;;;;;4964694;28;20046;-90
2022/06/14 00:38:58;;;;;;;12.02;4.90;;;9.40;1.00;;;;;;4967376;28;20027;-89
2022/06/14 00:41:30;;;;;;;12.00;5.00;;;9.30;1.00;;;;;;4967910;28;20427;-88
2022/06/14 00:43:56;;;;;;;13.73;5.00;;;9.30;1.00;;;;;;4966578;28;20070;-89
2022/06/14 00:46:28;;;;;;;10.85;5.53;;;9.30;1.00;;;;;;4967512;28;20230;-90
2022/06/14 00:49:00;;;;;;;10.70;5.13;;;9.30;1.00;;;;;;4995174;28;20121;-88
2022/06/14 00:51:34;;;;;;;15.57;5.80;;;9.30;1.00;;;;;;4979487;28;20046;-89
2022/06/14 00:54:23;;;;;;;15.52;5.70;;;9.20;1.00;;;;;;4967536;28;20081;-88
2022/06/14 00:57:18;;;;;;;12.23;5.20;;;9.20;1.00;;;;;;4976299;28;20082;-88
2022/06/14 00:59:52;;;;;;;11.93;5.40;;;9.20;1.00;;;;;;4965233;28;20170;-89
2022/06/14 01:02:23;;;;;;;18.50;5.55;;;9.30;57.10;;;;;;4967709;28;20043;-88
2022/06/14 01:04:49;;;;;;;11.98;4.53;;;9.40;14.30;;;;;;4967770;28;20046;-88
2022/06/14 01:07:40;;;;;;;10.93;5.55;;;9.20;1.00;;;;;;4964542;28;20050;-89
2022/06/14 01:10:19;;;;;;;8.30;4.80;;;9.20;1.00;;;;;;4968214;28;20102;-88
2022/06/14 01:12:48;;;;;;;12.35;4.75;;;9.20;1.00;;;;;;4977269;28;20046;-88
2022/06/14 01:15:19;;;;;;;11.95;4.95;;;9.20;1.00;;;;;;4969325;28;20397;-89
2022/06/14 01:17:49;;;;;;;10.05;4.93;;;9.30;1.00;;;;;;4966408;28;20575;-88
2022/06/14 01:20:18;;;;;;;13.98;5.60;;;9.30;1.00;;;;;;4965729;28;20042;-88
2022/06/14 01:22:48;;;;;;;12.93;4.97;;;9.30;1.00;;;;;;4961504;28;20112;-88
2022/06/14 01:25:15;;;;;;;13.18;4.70;;;9.30;1.00;;;;;;4978804;28;20537;-88
2022/06/14 01:27:41;;;;;;;10.13;4.97;;;9.10;1.00;;;;;;4962448;28;20097;-88
2022/06/14 01:30:18;;;;;;;12.65;5.60;;;9.20;1.00;;;;;;4963991;28;20047;-88
2022/06/14 01:32:59;;;;;;;10.10;4.95;;;9.20;4.60;;;;;;4964853;28;20119;-88
2022/06/14 01:35:28;;;;;;;11.18;5.25;;;9.10;19.20;;;;;;4963530;28;20034;-88
2022/06/14 01:37:57;;;;;;;11.80;5.05;;;9.10;2.80;;;;;;4961123;28;20070;-88
2022/06/14 01:40:47;;;;;;;12.40;5.15;;;9.00;1.00;;;;;;4961837;28;20459;-88
2022/06/14 01:43:31;;;;;;;11.73;5.30;;;9.00;1.00;;;;;;4967682;28;20054;-88
2022/06/14 01:46:19;;;;;;;15.10;5.23;;;8.90;1.00;;;;;;4946091;28;20061;-89
2022/06/14 01:51:50;;;;;;;14.45;4.97;;;8.80;1.00;;;;;;4966907;28;20305;-87
2022/06/14 01:52:02;;;;;;;17.17;5.75;;;8.90;32.40;;;;;;4964507;28;20142;-86
2022/06/14 01:54:55;;;;;;;13.63;5.60;;;8.90;43.90;;;;;;4980371;28;20052;-88
2022/06/14 01:57:46;;;;;;;14.48;5.03;;;8.80;24.40;;;;;;4990706;28;20122;-87
2022/06/14 02:00:19;;;;;;;11.57;5.00;;;8.70;34.50;;;;;;4967041;28;20042;-88
2022/06/14 02:02:51;;;;;;;14.75;5.25;;;8.70;65.30;;;;;;4964099;28;20034;-89
2022/06/14 02:05:32;;;;;;;17.08;5.72;;;8.80;97.70;;;;;;4966100;28;20051;-87
2022/06/14 02:08:09;;;;;;;8.95;5.30;;;8.70;99.90;;;;;;4966936;28;20134;-88
2022/06/14 02:11:02;;;;;;;10.45;5.47;;;8.80;99.90;;;;;;4963726;28;20129;-87
2022/06/14 02:13:34;;;;;;;12.95;5.88;;;8.80;99.90;;;;;;4967533;28;20031;-88
2022/06/14 02:16:24;;;;;;;10.38;5.88;;;8.80;99.90;;;;;;4962031;28;20046;-88
2022/06/14 02:19:18;;;;;;;10.75;5.80;;;8.70;99.90;;;;;;4962427;28;20038;-89
2022/06/14 02:21:51;;;;;;;10.82;6.13;;;8.70;95.70;;;;;;4961699;28;20062;-88
2022/06/14 02:24:25;;;;;;;13.27;5.57;;;8.60;96.70;;;;;;4980181;28;20077;-88
2022/06/14 02:26:54;;;;;;;14.80;6.05;;;8.60;93.60;;;;;;4967041;28;20051;-88
2022/06/14 02:29:26;;;;;;;14.57;6.43;;;8.60;93.20;;;;;;4963791;28;20049;-88
2022/06/14 02:31:58;;;;;;;11.68;6.00;;;8.60;99.90;;;;;;4962145;28;20039;-88
2022/06/14 02:34:30;;;;;;;14.75;6.90;;;8.70;99.90;;;;;;4964446;28;20374;-88
2022/06/14 02:37:17;;;;;;;13.95;6.82;;;8.70;99.90;;;;;;4961210;28;20105;-88
2022/06/14 02:39:52;;;;;;;15.38;5.80;;;8.70;99.90;;;;;;4967190;28;20066;-87
2022/06/14 02:42:32;;;;;;;15.77;6.47;;;8.60;99.90;;;;;;4961627;28;20513;-88
2022/06/14 02:45:14;;;;;;;14.35;6.40;;;8.70;99.90;;;;;;4974305;28;20050;-87
2022/06/14 02:47:55;;;;;;;17.60;6.50;;;8.70;99.90;;;;;;4977245;28;20145;-87
2022/06/14 02:50:35;;;;;;;14.02;6.50;;;8.70;99.90;;;;;;4960650;28;20047;-87
2022/06/14 02:53:09;;;;;;;17.55;6.43;;;8.80;99.90;;;;;;4981573;28;20046;-87
2022/06/14 02:55:43;;;;;;;13.98;6.40;;;8.70;99.90;;;;;;4974996;28;20042;-87
2022/06/14 02:58:13;;;;;;;14.20;6.40;;;8.70;99.90;;;;;;4978470;28;20046;-88
2022/06/14 03:00:47;;;;;;;11.27;5.88;;;8.70;99.90;;;;;;4980592;28;20070;-86
2022/06/14 03:03:22;;;;;;;14.73;6.57;;;8.70;99.90;;;;;;4960778;28;20130;-87
2022/06/14 03:05:57;;;;;;;12.90;6.20;;;8.70;99.90;;;;;;4963036;28;20055;-86
2022/06/14 03:08:37;;;;;;;20.95;6.80;;;8.70;99.90;;;;;;4966113;28;20522;-87
2022/06/14 03:11:26;;;;;;;13.82;6.43;;;8.70;99.90;;;;;;4990559;28;20050;-87
2022/06/14 03:14:20;;;;;;;14.68;6.80;;;8.60;99.90;;;;;;4980373;28;20043;-87
2022/06/14 03:17:20;;;;;;;14.02;6.20;;;8.60;99.90;;;;;;4963914;28;20035;-87
2022/06/14 03:20:12;;;;;;;12.85;6.53;;;8.70;99.90;;;;;;4975261;28;20061;-87
2022/06/14 03:23:02;;;;;;;13.23;6.47;;;8.70;99.90;;;;;;4963529;28;20049;-88
2022/06/14 03:25:40;;;;;;;10.88;6.40;;;8.80;99.90;;;;;;4974801;28;20502;-87
2022/06/14 03:28:12;;;;;;;14.63;6.03;;;8.80;99.90;;;;;;4966479;28;20066;-87
2022/06/14 03:30:55;;;;;;;15.02;6.35;;;8.80;99.90;;;;;;4978986;28;20363;-87
2022/06/14 03:33:29;;;;;;;14.25;6.30;;;8.80;99.90;;;;;;4970378;28;20138;-87
2022/06/14 03:35:55;;;;;;;11.40;6.55;;;8.80;99.90;;;;;;4964774;28;20482;-88
2022/06/14 03:38:35;;;;;;;16.58;6.85;;;8.90;99.90;;;;;;4984317;28;20041;-87
2022/06/14 03:41:01;;;;;;;19.10;6.85;;;8.90;90.80;;;;;;4969449;28;20420;-85
2022/06/14 03:43:29;;;;;;;13.00;6.07;;;8.90;81.90;;;;;;4966526;28;20554;-86
2022/06/14 03:46:05;;;;;;;11.98;6.75;;;8.90;65.30;;;;;;4963981;28;20055;-86
2022/06/14 03:48:34;;;;;;;15.15;6.47;;;8.90;39.90;;;;;;4986481;28;20041;-86
2022/06/14 03:51:18;;;;;;;14.05;6.20;;;8.90;38.40;;;;;;4964417;28;20094;-87
2022/06/14 03:53:55;;;;;;;15.98;6.40;;;8.90;24.70;;;;;;4984059;28;20518;-86
2022/06/14 03:56:46;;;;;;;13.65;5.95;;;8.90;22.40;;;;;;4984600;28;20038;-85
2022/06/14 03:59:49;;;;;;;14.30;6.10;;;9.00;23.40;;;;;;4962648;28;20158;-86
2022/06/14 04:02:53;;;;;;;12.48;5.93;;;9.00;15.60;;;;;;4965274;28;20895;-87
2022/06/14 04:05:38;;;;;;;11.40;5.63;;;9.00;16.70;;;;;;4994703;28;20406;-86
2022/06/14 04:08:18;;;;;;;12.40;5.53;;;9.00;8.90;;;;;;4970117;28;20281;-86
2022/06/14 04:10:57;;;;;;;12.27;5.70;;;9.00;1.00;;;;;;4978205;28;20047;-86
2022/06/14 04:13:43;;;;;;;10.45;5.57;;;9.10;1.00;;;;;;4955681;28;20117;-86
2022/06/14 04:16:35;;;;;;;15.73;6.05;;;9.10;1.00;;;;;;4970695;28;20030;-86
2022/06/14 04:19:04;;;;;;;13.77;6.07;;;9.10;1.00;;;;;;4969602;28;20061;-85
2022/06/14 04:21:37;;;;;;;12.05;5.90;;;9.20;1.00;;;;;;4949035;28;20049;-86
2022/06/14 04:24:30;;;;;;;10.70;5.78;;;9.30;1.00;;;;;;4982782;28;20125;-86
2022/06/14 04:27:08;;;;;;;16.00;6.22;;;9.40;1.00;;;;;;4950742;28;20245;-86
2022/06/14 04:29:36;;;;;;;12.35;6.70;;;9.50;1.00;;;;;;4961888;28;20144;-86
2022/06/14 04:32:26;;;;;;;13.18;6.40;;;9.60;1.00;;;;;;4968720;28;20133;-86
2022/06/14 04:35:07;;;;;;;15.55;6.07;;;9.70;1.00;;;;;;4968084;28;20039;-87
2022/06/14 04:37:44;;;;;;;14.45;6.57;;;9.90;1.00;;;;;;4968894;28;20069;-87
2022/06/14 04:40:20;;;;;;;9.30;5.93;;;10.00;1.00;;;;;;4995124;28;20506;-86
2022/06/14 04:42:56;;;;;;;13.95;6.57;;;10.10;1.00;;;;;;4979553;28;20039;-86
2022/06/14 04:45:25;;;;;;;12.38;6.13;;;10.20;1.00;;;;;;4964892;28;20165;-87
2022/06/14 04:47:57;;;;;;;15.13;6.63;;;10.30;1.00;;;;;;4984479;28;20350;-86
2022/06/14 04:50:36;;;;;;;14.80;5.70;;;10.50;1.00;;;;;;4963517;28;20042;-86
2022/06/14 04:53:09;;;;;;;14.18;6.38;;;10.70;1.00;;;;;;4964118;28;20394;-86
2022/06/14 04:55:51;;;;;;;12.48;5.60;;;11.00;1.00;;;;;;4971211;28;20460;-86
2022/06/14 04:58:20;;;;;;;13.52;5.95;;;11.10;99.90;;;;;;4979746;28;20035;-86
2022/06/14 05:00:58;;;;;;;15.30;6.20;;;11.20;99.90;;;;;;4966741;28;20485;-86
2022/06/14 05:03:50;;;;;;;12.90;5.50;;;11.20;99.90;;;;;;4968040;28;20541;-86
2022/06/14 05:06:49;;;;;;;13.93;5.68;;;11.30;99.90;;;;;;4944110;28;20059;-86
2022/06/14 05:09:29;;;;;;;11.32;5.57;;;11.30;99.90;;;;;;4969238;28;20453;-86
2022/06/14 05:12:10;;;;;;;10.88;5.72;;;11.20;99.90;;;;;;4985881;28;20046;-86
2022/06/14 05:14:38;;;;;;;11.50;5.70;;;11.20;99.90;;;;;;4966523;28;20051;-85
2022/06/14 05:17:15;;;;;;;9.57;5.05;;;11.30;99.90;;;;;;4964578;28;20052;-86
2022/06/14 05:20:10;;;;;;;13.48;5.78;;;11.40;1.00;;;;;;4996996;28;20043;-86
2022/06/14 05:23:05;;;;;;;12.02;5.40;;;11.50;1.00;;;;;;4965790;28;20117;-85
2022/06/14 05:25:51;;;;;;;10.95;5.47;;;11.70;99.90;;;;;;4958802;28;20045;-85
2022/06/14 05:28:38;;;;;;;14.20;5.85;;;11.70;99.90;;;;;;4960772;28;20051;-86
2022/06/14 05:31:24;;;;;;;9.55;5.50;;;11.80;99.90;;;;;;4964923;28;20082;-85
2022/06/14 05:34:08;;;;;;;10.05;5.57;;;12.00;99.90;;;;;;4980856;28;20394;-85
2022/06/14 05:36:40;;;;;;;11.55;5.20;;;12.20;99.90;;;;;;4966672;28;20101;-86
2022/06/14 05:39:14;;;;;;;11.68;5.45;;;12.30;99.90;;;;;;4968202;28;20042;-86
2022/06/14 05:42:07;;;;;;;15.70;5.60;;;12.40;99.90;;;;;;4978408;28;20446;-86
2022/06/14 05:44:45;;;;;;;8.07;4.95;;;12.70;99.90;;;;;;4962449;28;20046;-86
2022/06/14 05:47:43;;;;;;;8.43;4.93;;;12.70;99.90;;;;;;4981801;28;20053;-86
2022/06/14 05:50:25;;;;;;;11.55;4.30;;;12.90;99.90;;;;;;4965462;28;20049;-86
2022/06/14 05:52:54;;;;;;;9.75;4.35;;;13.00;99.90;;;;;;4981077;28;20451;-86
2022/06/14 05:55:35;;;;;;;9.23;4.40;;;13.20;99.90;;;;;;4974295;28;20460;-86
2022/06/14 05:58:20;;;;;;;9.45;4.10;;;13.40;99.90;;;;;;4969725;28;20236;-86
2022/06/14 06:00:56;;;;;;;9.73;4.28;;;13.30;99.90;;;;;;4945402;28;20043;-86
2022/06/14 06:03:46;;;;;;;7.38;3.90;;;13.40;99.90;;;;;;4984432;28;20049;-87
2022/06/14 06:06:19;;;;;;;10.25;4.43;;;13.60;99.90;;;;;;4981401;28;20043;-86
2022/06/14 06:09:10;;;;;;;8.57;3.90;;;13.70;99.90;;;;;;4964184;28;20066;-87
2022/06/14 06:11:54;;;;;;;10.73;4.50;;;13.80;99.90;;;;;;4992888;28;20168;-86
2022/06/14 06:14:30;;;;;;;10.25;3.90;;;14.00;99.90;;;;;;4982711;28;20122;-86
2022/06/14 06:17:15;;;;;;;11.63;3.85;;;14.00;99.90;;;;;;4978628;28;20486;-86
2022/06/14 06:20:06;;;;;;;7.15;3.33;;;14.00;99.90;;;;;;4963193;28;20507;-87
2022/06/14 06:22:32;;;;;;;13.23;3.90;;;14.00;99.90;;;;;;4974764;28;20054;-86
2022/06/14 06:25:19;;;;;;;12.82;3.60;;;14.20;99.90;;;;;;4963325;28;20051;-87
2022/06/14 06:28:16;;;;;;;6.53;3.22;;;14.30;99.90;;;;;;4959812;28;20560;-86
2022/06/14 06:31:09;;;;;;;7.55;2.72;;;14.40;99.90;;;;;;4978239;28;20122;-87
2022/06/14 06:33:40;;;;;;;9.45;3.20;;;14.50;99.90;;;;;;4963818;28;20047;-88
2022/06/14 06:36:12;;;;;;;7.22;2.88;;;14.50;99.90;;;;;;4961676;28;20054;-86
2022/06/14 06:38:56;;;;;;;8.48;3.00;;;14.60;99.90;;;;;;4974275;28;20043;-87
2022/06/14 06:45:05;;;;;;;5.82;2.85;;;14.60;99.90;;;;;;4962375;28;20390;-87
2022/06/14 06:47:42;;;;;;;8.35;2.80;;;14.70;99.90;;;;;;4865397;29;20431;-87
2022/06/14 06:50:10;;;;;;;9.25;3.17;;;14.70;99.90;;;;;;4971506;28;20185;-87
2022/06/14 06:53:13;;;;;;;11.65;2.70;;;14.90;99.90;;;;;;4962999;28;20041;-88
2022/06/14 06:55:46;;;;;;;6.10;2.88;;;14.90;99.90;;;;;;4950441;28;20046;-87
2022/06/14 06:58:20;;;;;;;9.38;3.10;;;15.10;99.90;;;;;;4962475;28;20045;-88
2022/06/14 07:00:48;;;;;;;8.50;3.50;;;15.20;99.90;;;;;;4965563;28;20129;-88
2022/06/14 07:03:36;;;;;;;9.63;3.15;;;15.30;99.90;;;;;;4960150;28;20042;-88
2022/06/14 07:06:06;;;;;;;13.43;3.50;;;15.40;92.40;;;;;;4932627;28;20390;-87
2022/06/14 07:09:01;;;;;;;10.95;2.72;;;15.40;94.10;;;;;;4960620;28;20161;-88
2022/06/14 07:11:34;;;;;;;6.27;2.70;;;15.50;80.10;;;;;;4952669;28;20051;-87
2022/06/14 07:14:09;;;;;;;11.70;2.80;;;15.70;99.90;;;;;;4958590;28;21019;-88
2022/06/14 07:16:41;;;;;;;8.20;2.47;;;15.80;30.80;;;;;;4960481;28;20058;-88
2022/06/14 07:19:19;;;;;;;9.15;2.80;;;15.80;37.40;;;;;;4989823;28;20031;-89
2022/06/14 07:21:53;;;;;;;7.88;2.50;;;15.60;19.50;;;;;;4964587;28;20070;-88
2022/06/14 07:24:28;;;;;;;9.48;2.83;;;15.60;5.10;;;;;;4969356;28;20050;-87
2022/06/14 07:26:55;;;;;;;;;;;15.60;1.80;;;;;;4966870;28;20050;-88
2022/06/14 07:29:33;;;;;;;7.53;2.20;;;15.90;1.00;;;;;;4951971;28;19965;-88
2022/06/14 07:32:11;;;;;;;5.90;2.22;;;15.90;1.00;;;;;;4971571;28;20398;-89
2022/06/14 07:34:37;;;;;;;5.63;2.05;;;16.00;1.00;;;;;;4952143;28;20043;-88
2022/06/14 07:37:06;;;;;;;9.57;2.42;;;16.00;1.00;;;;;;4952922;28;20524;-88
2022/06/14 07:39:54;;;;;;;4.88;2.10;;;16.00;1.00;;;;;;4962819;28;20097;-87
2022/06/14 07:42:47;;;;;;;9.27;2.30;;;16.20;99.90;;;;;;4974931;28;20704;-87
2022/06/14 07:45:34;;;;;;;5.45;1.92;;;16.00;1.00;;;;;;4992574;28;20125;-88
2022/06/14 07:48:22;;;;;;;6.97;1.92;;;16.30;1.00;;;;;;4955491;28;20061;-88
2022/06/14 07:50:59;;;;;;;5.72;1.98;;;16.40;1.00;;;;;;4971562;28;20043;-87
2022/06/14 07:53:48;;;;;;;5.78;1.92;;;16.40;1.00;;;;;;4956562;28;20047;-88
2022/06/14 07:56:22;;;;;;;6.30;1.90;;;16.40;1.00;;;;;;4975503;28;20071;-88
2022/06/14 07:59:14;;;;;;;4.20;1.77;;;16.30;1.00;;;;;;4966040;28;20043;-88
2022/06/14 08:01:45;;;;;;;4.95;1.85;;;16.70;1.00;;;;;;4958801;28;20441;-88
2022/06/14 08:04:17;;;;;;;5.70;2.53;;;17.00;1.00;;;;;;4963027;28;20035;-88
2022/06/14 08:06:53;;;;;;;5.32;2.08;;;17.10;1.00;;;;;;4956268;28;20127;-88
2022/06/14 08:09:25;;;;;;;7.53;2.30;;;17.40;1.00;;;;;;4967416;28;20045;-88
2022/06/14 08:11:57;;;;;;;4.15;1.90;;;17.10;1.00;;;;;;4946528;28;20498;-88
2022/06/14 08:14:34;;;;;;;5.03;2.00;;;16.90;1.00;;;;;;4965624;28;21533;-88
2022/06/14 08:17:01;;;;;;;9.35;2.58;;;16.60;1.00;;;;;;4983021;28;20043;-89
2022/06/14 08:19:58;;;;;;;5.88;1.83;;;16.70;1.00;;;;;;4962126;28;20043;-89
2022/06/14 08:22:35;;;;;;;8.68;2.10;;;16.50;1.00;;;;;;4975187;28;20081;-89
2022/06/14 08:25:08;;;;;;;5.22;3.08;;;16.70;1.00;;;;;;4956072;28;20062;-88
2022/06/14 08:27:45;;;;;;;4.88;1.65;;;16.40;1.00;;;;;;4961444;28;20031;-89
2022/06/14 08:30:20;;;;;;;5.30;2.00;;;16.60;1.00;;;;;;4964996;28;20049;-88
2022/06/14 08:32:53;;;;;;;5.95;1.95;;;17.00;1.00;;;;;;4991358;28;20049;-89
2022/06/14 08:35:32;;;;;;;4.35;1.85;;;17.30;1.00;;;;;;4979352;28;20335;-88
2022/06/14 08:38:06;;;;;;;7.88;1.70;;;17.70;1.00;;;;;;4959670;28;20049;-89
2022/06/14 08:40:32;;;;;;;4.55;1.90;;;18.00;1.00;;;;;;4961927;28;20173;-87
2022/06/14 08:43:05;;;;;;;4.65;1.73;;;18.00;1.00;;;;;;4976817;28;20141;-89
2022/06/14 08:45:38;;;;;;;6.15;2.00;;;17.70;1.00;;;;;;4948180;28;20126;-88
2022/06/14 08:48:40;;;;;;;3.53;1.60;;;18.30;1.00;;;;;;4967518;28;20526;-88
2022/06/14 08:51:32;;;;;;;5.40;2.08;;;18.40;1.00;;;;;;4967162;28;20055;-89
2022/06/14 08:54:24;;;;;;;4.53;1.80;;;18.80;1.00;;;;;;4960097;28;20039;-87
2022/06/14 08:56:55;;;;;;;5.07;1.70;;;19.00;1.00;;;;;;4960045;28;20051;-88
2022/06/14 08:59:43;;;;;;;5.30;1.63;;;19.00;1.00;;;;;;4965430;28;20046;-88
2022/06/14 09:02:26;;;;;;;4.47;1.60;;;18.10;1.00;;;;;;4959415;28;20050;-87
2022/06/14 09:05:25;;;;;;;6.20;2.00;;;17.50;1.00;;;;;;4978098;28;20086;-87
2022/06/14 09:08:29;;;;;;;3.88;1.77;;;17.30;1.00;;;;;;4966228;28;20090;-88
2022/06/14 09:11:34;;;;;;;6.28;1.65;;;17.30;1.00;;;;;;4962597;28;20049;-88
2022/06/14 09:14:38;;;;;;;5.13;2.17;;;17.40;1.00;;;;;;4962204;28;20431;-88
2022/06/14 09:17:31;;;;;;;4.47;1.60;;;17.50;1.00;;;;;;4966120;28;20126;-89
2022/06/14 09:20:00;;;;;;;3.53;1.65;;;17.70;1.00;;;;;;4977801;28;20114;-88
2022/06/14 09:22:37;;;;;;;4.30;1.80;;;17.80;1.00;;;;;;4962125;28;20100;-87
2022/06/14 09:25:48;;;;;;;5.38;1.60;;;18.10;1.00;;;;;;4970514;28;20035;-88
2022/06/14 09:28:25;;;;;;;4.22;1.88;;;18.70;1.00;;;;;;4978396;28;20501;-88
2022/06/14 09:31:20;;;;;;;4.45;1.73;;;19.30;1.00;;;;;;4975992;28;20065;-88
2022/06/14 09:34:34;;;;;;;3.13;1.70;;;19.20;1.00;;;;;;4993512;28;20189;-89
2022/06/14 09:37:03;;;;;;;3.42;1.55;;;19.40;1.00;;;;;;4935823;28;20058;-87
2022/06/14 09:39:37;;;;;;;6.82;2.00;;;20.00;99.90;;;;;;4964999;28;20064;-87
2022/06/14 09:42:21;;;;;;;5.25;1.52;;;20.60;1.00;;;;;;4983682;28;20045;-88
2022/06/14 09:45:06;;;;;;;5.00;1.60;;;19.90;99.90;;;;;;4964998;28;20554;-88
2022/06/14 09:47:44;;;;;;;4.18;1.63;;;19.30;99.90;;;;;;4951434;28;20057;-88
2022/06/14 09:50:46;;;;;;;4.43;1.60;;;18.70;99.90;;;;;;4963929;28;20035;-88
2022/06/14 09:53:36;;;;;;;4.85;1.73;;;18.50;99.90;;;;;;4975998;28;20058;-88
2022/06/14 09:56:01;;;;;;;5.70;1.60;;;18.50;99.90;;;;;;4966441;28;20046;-88
2022/06/14 09:59:05;;;;;;;3.97;1.70;;;18.50;99.90;;;;;;4950853;28;20134;-88
2022/06/14 10:01:47;;;;;;;3.70;1.17;;;18.70;99.90;;;;;;4963395;28;20162;-88
2022/06/14 10:04:41;;;;;;;3.38;1.80;;;18.80;99.90;;;;;;4983256;28;20034;-88
2022/06/14 10:07:10;;;;;;;4.25;1.60;;;19.00;1.00;;;;;;4979478;28;20046;-89
2022/06/14 10:09:38;;;;;;;3.20;1.40;;;19.20;99.90;;;;;;4950882;28;20490;-89
2022/06/14 10:12:07;;;;;;;2.90;1.40;;;19.40;99.90;;;;;;4981396;28;20038;-88
2022/06/14 10:15:05;;;;;;;2.70;1.40;;;19.40;99.90;;;;;;4951917;28;20042;-89
2022/06/14 10:18:04;;;;;;;3.97;1.48;;;19.80;99.90;;;;;;4982497;28;20045;-89
2022/06/14 10:20:36;;;;;;;4.07;1.33;;;19.80;99.90;;;;;;4993322;28;20109;-88
2022/06/14 10:23:36;;;;;;;7.47;1.55;;;20.40;99.90;;;;;;4979008;28;20049;-89
2022/06/14 10:29:32;;;;;;;4.07;1.38;;;20.50;99.90;;;;;;4980846;28;20114;-89
2022/06/14 10:32:31;;;;;;;2.65;1.27;;;20.50;99.90;;;;;;4964859;28;20027;-89
2022/06/14 10:35:04;;;;;;;4.22;1.70;;;20.80;99.90;;;;;;4964874;28;20367;-88
2022/06/14 10:37:51;;;;;;;2.53;1.23;;;20.20;99.90;;;;;;4963893;28;20671;-89
2022/06/14 10:40:17;;;;;;;4.38;1.65;;;20.40;99.90;;;;;;4966607;28;20035;-88
2022/06/14 10:42:52;;;;;;;3.17;1.40;;;20.30;99.90;;;;;;4948222;28;20046;-88
2022/06/14 10:45:18;;;;;;;3.88;1.63;;;19.80;99.90;;;;;;4976981;28;20082;-90
2022/06/14 10:48:14;;;;;;;3.47;1.30;;;20.30;99.90;;;;;;4964930;28;20042;-89
2022/06/14 10:50:49;;;;;;;3.03;1.40;;;20.80;99.90;;;;;;4962223;28;20128;-88
2022/06/14 10:53:15;;;;;;;;;;;20.20;99.90;;;;;;4967935;28;20035;-88
2022/06/14 10:56:10;;;;;;;3.65;1.65;;;19.90;99.90;;;;;;4949922;28;20557;-88
2022/06/14 10:59:07;;;;;;;2.83;1.20;;;19.90;99.90;;;;;;4976975;28;20153;-88
2022/06/14 11:01:35;;;;;;;2.55;1.30;;;19.80;99.90;;;;;;4990868;28;20117;-89
2022/06/14 11:04:27;;;;;;;7.15;1.75;;;19.70;99.90;;;;;;4966446;28;20038;-88
2022/06/14 11:07:27;;;;;;;4.03;1.80;;;19.50;99.90;;;;;;4967267;28;20043;-89
2022/06/14 11:10:27;;;;;;;3.13;1.52;;;19.50;99.90;;;;;;4991792;28;20049;-88
2022/06/14 11:13:19;;;;;;;3.60;2.03;;;19.50;99.90;;;;;;4965596;28;20129;-89
2022/06/14 11:16:21;;;;;;;3.60;1.88;;;19.40;99.90;;;;;;4962108;28;20046;-88
2022/06/14 11:22:12;;;;;;;3.63;1.52;;;19.40;99.90;;;;;;4992761;28;20047;-88
2022/06/14 11:24:57;;;;;;;3.90;1.60;;;19.30;99.90;;;;;;4974059;28;20072;-88
2022/06/14 11:27:41;;;;;;;;;;;19.20;99.90;;;;;;4976788;28;20039;-89
2022/06/14 11:30:38;;;;;;;3.85;1.60;;;19.30;99.90;;;;;;4960501;28;19925;-89
2022/06/14 11:33:18;;;;;;;2.58;1.40;;;19.10;99.90;;;;;;4964395;28;20050;-89
2022/06/14 11:36:05;;;;;;;4.20;1.60;;;19.10;99.90;;;;;;4962807;28;20045;-90
2022/06/14 11:39:06;;;;;;;2.78;1.38;;;19.00;99.90;;;;;;4977911;28;20038;-89
2022/06/14 11:41:40;;;;;;;4.90;1.77;;;19.10;99.90;;;;;;4961977;28;20047;-89
2022/06/14 11:44:29;;;;;;;3.42;1.70;;;19.10;99.90;;;;;;4961485;28;20054;-88
2022/06/14 11:47:06;;;;;;;4.15;1.90;;;19.20;99.90;;;;;;4967299;28;20494;-90
2022/06/14 11:49:51;;;;;;;4.40;1.88;;;19.30;99.90;;;;;;4963587;28;20102;-89
2022/06/14 11:52:58;;;;;;;2.95;1.77;;;19.00;99.90;;;;;;4950118;28;20062;-89
2022/06/14 11:55:27;;;;;;;6.43;1.85;;;18.80;99.90;;;;;;4970359;28;20042;-89
2022/06/14 11:57:58;;;;;;;4.22;1.83;;;18.80;99.90;;;;;;4973062;28;20031;-90
2022/06/14 12:00:42;;;;;;;6.32;1.75;;;19.30;99.90;;;;;;4968037;28;20622;-90
2022/06/14 12:03:23;;;;;;;4.20;1.92;;;19.70;99.90;;;;;;4969737;28;20486;-89
2022/06/14 12:06:26;;;;;;;2.95;1.60;;;20.10;99.90;;;;;;4981523;28;20050;-89
2022/06/14 12:09:29;;;;;;;5.25;1.90;;;20.40;99.90;;;;;;4979031;28;20043;-88
2022/06/14 12:12:03;;;;;;;3.38;1.90;;;20.60;99.90;;;;;;4995449;28;20050;-90
2022/06/14 12:14:35;;;;;;;5.40;2.00;;;19.80;99.90;;;;;;4971990;28;20051;-91
2022/06/14 12:17:31;;;;;;;3.28;1.90;;;19.80;99.90;;;;;;4954646;28;20039;-90
2022/06/14 12:20:09;;;;;;;4.32;1.85;;;19.60;99.90;;;;;;4981180;28;20058;-89
2022/06/14 12:22:41;;;;;;;4.05;2.00;;;19.90;99.90;;;;;;4966040;28;20038;-90
2022/06/14 12:28:08;;;;;;;5.32;2.13;;;19.80;99.90;;;;;;4971122;28;20053;-90
2022/06/14 12:30:35;;;;;;;5.25;1.92;;;19.90;99.90;;;;;;4984324;28;20077;-90
2022/06/14 12:33:29;;;;;;;3.47;1.98;;;19.30;99.90;;;;;;4980636;28;20042;-89
2022/06/14 12:36:08;;;;;;;4.25;1.83;;;19.70;99.90;;;;;;4968348;28;20042;-90
2022/06/14 12:38:40;;;;;;;2.58;1.90;;;20.00;99.90;;;;;;4985717;28;20035;-90
2022/06/14 12:41:21;;;;;;;2.97;1.77;;;19.70;99.90;;;;;;4965692;28;20039;-90
2022/06/14 12:44:11;;;;;;;5.00;2.00;;;20.00;99.90;;;;;;4966026;28;20053;-89
2022/06/14 12:46:44;;;;;;;4.90;1.95;;;19.90;99.90;;;;;;4979064;28;20051;-89
2022/06/14 12:49:29;;;;;;;3.95;2.10;;;20.40;99.90;;;;;;4970772;28;20058;-91
2022/06/14 12:52:19;;;;;;;4.33;1.73;;;19.80;99.90;;;;;;4960101;28;20134;-90
2022/06/14 12:55:03;;;;;;;3.95;1.80;;;20.30;99.90;;;;;;4953697;28;20046;-91
2022/06/14 12:58:03;;;;;;;5.63;2.28;;;21.00;99.90;;;;;;4952313;28;20062;-90
2022/06/14 13:00:45;;;;;;;3.67;1.88;;;21.30;99.90;;;;;;4977368;28;20073;-89
2022/06/14 13:03:34;;;;;;;3.33;1.80;;;21.00;99.90;;;;;;4991613;28;20030;-89
2022/06/14 13:06:28;;;;;;;5.07;1.80;;;20.90;99.90;;;;;;4919832;28;20398;-91
2022/06/14 13:08:58;;;;;;;3.33;1.92;;;21.60;99.90;;;;;;4949756;28;20485;-90
2022/06/14 13:11:49;;;;;;;5.60;2.10;;;22.10;99.90;;;;;;4958989;28;20047;-90
2022/06/14 13:14:26;;;;;;;4.75;1.92;;;22.40;99.90;;;;;;4962013;28;20039;-88
2022/06/14 13:17:01;;;;;;;2.60;1.60;;;22.30;99.90;;;;;;4963933;28;20137;-89
2022/06/14 13:19:32;;;;;;;;;;;22.00;99.90;;;;;;4967911;28;21228;-90
2022/06/14 13:22:03;;;;;;;5.00;1.60;;;22.30;99.90;;;;;;4982149;28;20053;-90
2022/06/14 13:24:56;;;;;;;2.88;1.63;;;22.50;99.90;;;;;;4978226;28;20144;-90
2022/06/14 13:27:50;;;;;;;4.18;1.88;;;22.40;99.90;;;;;;4994731;28;20078;-90
2022/06/14 13:30:41;;;;;;;3.92;1.60;;;21.30;99.90;;;;;;4963363;28;21055;-89
2022/06/14 13:33:45;;;;;;;2.35;1.48;;;22.10;99.90;;;;;;4986969;28;20158;-89
2022/06/14 13:36:49;;;;;;;3.58;1.70;;;22.90;99.90;;;;;;4965091;28;20078;-89
2022/06/14 13:39:32;;;;;;;4.00;1.50;;;23.00;99.90;;;;;;4950762;28;20054;-90
2022/06/14 13:42:08;;;;;;;5.47;1.88;;;23.00;99.90;;;;;;4978166;28;20042;-90
2022/06/14 13:44:37;;;;;;;3.25;1.33;;;22.60;99.90;;;;;;4960417;28;20051;-90
2022/06/14 13:47:15;;;;;;;3.75;1.85;;;23.10;99.90;;;;;;4972633;28;20204;-90
2022/06/14 13:49:47;;;;;;;4.38;1.20;;;23.20;99.90;;;;;;4970611;28;20038;-90
2022/06/14 13:52:30;;;;;;;3.58;1.60;;;23.20;99.90;;;;;;4975509;28;20121;-90
2022/06/14 13:55:17;;;;;;;2.00;1.40;;;23.60;99.90;;;;;;4966038;28;20038;-90
2022/06/14 13:57:51;;;;;;;3.20;1.60;;;23.60;99.90;;;;;;4966900;28;20161;-90
2022/06/14 14:01:05;;;;;;;2.30;1.33;;;23.40;99.90;;;;;;4983242;28;20042;-90
2022/06/14 14:03:44;;;;;;;3.28;1.30;;;23.40;99.90;;;;;;4918804;28;20130;-92
2022/06/14 14:06:36;;;;;;;4.68;1.50;;;22.70;99.90;;;;;;4958180;28;20093;-90
2022/06/14 14:09:18;;;;;;;2.90;1.42;;;23.30;99.90;;;;;;4956094;28;20101;-90
2022/06/14 14:11:52;;;;;;;1.70;1.00;;;23.20;99.90;;;;;;4960378;28;20049;-90
2022/06/14 14:14:29;;;;;;;2.22;1.58;;;23.70;99.90;;;;;;4988982;28;20394;-90